apracticalwedding.com alexa rank chart, apracticalwedding.com alexa rank daily changes

apracticalwedding.com alexa rank chart, apracticalwedding.com alexa rank daily changes

apracticalwedding.com
Actual rank:
24 934

RANK HISTORY

Date Rank Diff
2018/05/19 24 934 -8 801
2018/05/18 33 735 +5 205
2018/05/17 28 530 -6 604
2018/05/16 35 134 -6 946
2018/05/15 42 080 -12 045
2018/05/14 54 125 +8 679
2018/05/13 45 446 -11 678
2018/05/12 57 124 +3 641
2018/05/11 53 483 +23 171
2018/05/10 30 312 -11 526
2018/05/09 41 838 +3 959
2018/05/08 37 879 -5 755
2018/05/07 43 634 -3 098
2018/05/06 46 732 +5 052
2018/05/05 41 680 -6 828
2018/05/04 48 508 +21 526
2018/05/03 26 982 -13 894
2018/05/02 40 876 -9 354
2018/05/01 50 230 +6 034
2018/04/30 44 196 +2 219
2018/04/29 41 977 -9 773
2018/04/28 51 750 +7 162
2018/04/27 44 588 +8 404
2018/04/26 36 184 -5 285
2018/04/25 41 469 -9 552
2018/04/24 51 021 +6 433
2018/04/23 44 588 -23 952
2018/04/22 68 540 +23 766
2018/04/21 44 774 -2 105
2018/04/20 46 879 +13 792
2018/04/19 33 087 -7 744
2018/04/18 40 831 +9 454
2018/04/17 31 377 -11 643
2018/04/16 43 020 -2 038
2018/04/15 45 058 -217
2018/04/14 45 275 +487
2018/04/13 44 788 -3 140
2018/04/12 47 928 +11 768
2018/04/11 36 160 -4 451
2018/04/10 40 611 -9 021
2018/04/09 49 632 +1 101
2018/04/08 48 531 +9 698
2018/04/07 38 833 -2 779
2018/04/06 41 612 -4 859
2018/04/05 46 471 +4 551
2018/04/04 41 920 +1 965
2018/04/03 39 955 -1 678
2018/04/02 41 633 -23 762
2018/04/01 65 395 +29 281
2018/03/31 36 114 -13 757
2018/03/30 49 871 +6 385
2018/03/29 43 486 +10 288
2018/03/28 33 198 +3 973
2018/03/27 29 225 -8 283
2018/03/26 37 508 -8 252
2018/03/25 45 760 -26 467
2018/03/24 72 227 +37 894
2018/03/23 34 333 -16 382
2018/03/22 50 715 +1 488
2018/03/21 49 227 +2 169
2018/03/20 47 058

WIDGET FOR YOUR SITE

DOMAINS WITH THE NEAREST RANK

Domain Rank
prmtracking.com 24 929
fmovies.org 24 930
acu.edu.au 24 931
coe.int 24 932
bia2-dl.site 24 933
apracticalwedding.com 24 934
torrentmoatv.com 24 935
cengagenow.com 24 936
apktops.ir 24 937
travelstart.co.za 24 938
twcenter.net 24 939

DOMAINS WITH THE NEAREST RANK BY TLD .com

Domain Rank
zhaodao123.com 24 919
puregym.com 24 923
wey.com 24 925
android-1.com 24 927
prmtracking.com 24 929
apracticalwedding.com 24 934
torrentmoatv.com 24 935
cengagenow.com 24 936
humankinetics.com 24 940
petri.com 24 941
boardgamearena.com 24 942